Bayville, New Jersey
Current Conditions -  °F | °C
As of 3:15 PM on Thursday 23 Oct 2014 (Local Time) from KMJX Reporting Station
Overcast Overcast  
Wind Chill: 11°   Ceiling: 2100
Heat Index: 11°   Visibility: 5mi
Dew Point:   Wind: 10mph
Humidity: 88%   Direction: 320°NW
Pressure: 29.72"   Gusts: 17mph
Location:  39.91°N, 74.16°W
Report Text: KMJX 231915Z AUTO 32009G15KT 5SM FEW012 OVC021 11/09 A2972 RMK AO1
Loading
Personal Weather Stations






























Interactive Weather Map
Tropical Storm Tracking
New forecast layout! Learn more

10-Day Weather Forecast

Advertisements
Track Severe Weather on mobile